Time;durP1;ratioP1;P1;durP2;ratioP2;P2;SDS_P1;SDS_P2;PMS_P1;PMS_P2;Temp;Humidity;BMP_temperature;BMP_pressure;BME280_temperature;BME280_humidity;BME280_pressure;Samples;Min_cycle;Max_cycle;Signal;HPM_P1;HPM_P2
2021/03/31 00:01:55;;;;;;;6.27;3.40;;;15.20;81.50;;;15.94;42.06;102132.34;4887320;28;97618;-56
2021/03/31 00:04:21;;;;;;;5.00;3.70;;;15.10;81.50;;;15.89;42.22;102136.94;4871991;28;112243;-54
2021/03/31 00:06:48;;;;;;;6.07;3.67;;;15.00;81.30;;;15.84;42.74;102136.25;4891381;28;97895;-56
2021/03/31 00:09:15;;;;;;;4.50;3.10;;;15.00;82.90;;;15.82;43.09;102133.66;4866506;28;99413;-50
2021/03/31 00:11:41;;;;;;;4.67;2.80;;;14.90;82.90;;;15.82;43.31;102127.44;4894113;28;97327;-49
2021/03/31 00:14:08;;;;;;;3.77;2.50;;;15.00;83.30;;;15.86;43.15;102131.75;4870774;28;97778;-58
2021/03/31 00:16:33;;;;;;;4.73;3.27;;;15.10;82.70;;;15.88;43.01;102121.91;4873465;28;104014;-52
2021/03/31 00:18:59;;;;;;;3.07;2.70;;;15.20;82.00;;;15.91;43.12;102117.38;4877967;28;99251;-49
2021/03/31 00:21:25;;;;;;;3.70;2.30;;;15.20;82.60;;;15.96;42.94;102103.91;4875585;28;107041;-51
2021/03/31 00:23:52;;;;;;;5.30;2.90;;;15.30;81.60;;;15.99;42.96;102109.09;4891677;28;99706;-52
2021/03/31 00:26:19;;;;;;;4.40;2.50;;;15.30;81.70;;;16.02;42.65;102103.66;4857938;28;99368;-52
2021/03/31 00:28:45;;;;;;;6.77;3.73;;;15.30;81.20;;;16.03;42.58;102106.28;4877340;28;97896;-52
2021/03/31 00:31:11;;;;;;;6.50;4.20;;;15.30;81.30;;;16.04;42.56;102101.81;4874632;28;97485;-56
2021/03/31 00:33:37;;;;;;;4.83;3.50;;;15.30;81.10;;;16.05;42.67;102103.56;4895769;28;98627;-53
2021/03/31 00:36:04;;;;;;;4.87;3.13;;;15.30;80.70;;;16.04;42.51;102097.34;4894637;28;100391;-55
2021/03/31 00:38:30;;;;;;;5.33;2.80;;;15.30;81.70;;;16.05;42.68;102088.44;4886687;28;99098;-48
2021/03/31 00:40:56;;;;;;;3.80;2.83;;;15.30;81.70;;;16.08;42.44;102092.81;4896171;28;104188;-57
2021/03/31 00:43:22;;;;;;;4.60;3.20;;;15.40;81.50;;;16.10;42.58;102088.31;4873836;28;98651;-54
2021/03/31 00:45:48;;;;;;;2.17;1.97;;;15.50;80.90;;;16.14;42.41;102081.94;4889685;28;98621;-54
2021/03/31 00:48:15;;;;;;;3.13;2.53;;;15.50;82.50;;;16.20;42.33;102076.41;4892886;28;97830;-58
2021/03/31 00:50:47;;;;;;;5.40;3.13;;;15.70;80.20;;;16.22;42.26;102077.22;4892458;28;96983;-51
2021/03/31 00:53:26;;;;;;;3.20;2.60;;;15.60;80.20;;;16.24;42.25;102072.69;4874853;28;104381;-56
2021/03/31 00:55:52;;;;;;;8.20;3.77;;;15.60;80.60;;;16.22;42.16;102066.56;4857955;28;98022;-58
2021/03/31 00:58:18;;;;;;;3.23;2.80;;;15.60;80.60;;;16.22;42.48;102063.03;4892746;28;103350;-58
2021/03/31 01:00:45;;;;;;;3.50;2.90;;;15.50;81.00;;;16.18;42.50;102056.06;4863743;28;103905;-48
2021/03/31 01:03:11;;;;;;;3.87;2.70;;;15.50;80.90;;;16.15;42.39;102049.06;4893594;28;98545;-50
2021/03/31 01:05:37;;;;;;;3.30;2.67;;;15.40;80.80;;;16.15;42.54;102050.84;4876012;28;99469;-58
2021/03/31 01:08:03;;;;;;;3.87;2.47;;;15.40;81.90;;;16.15;42.45;102056.19;4894970;28;98281;-50
2021/03/31 01:10:45;;;;;;;3.33;2.70;;;15.40;81.30;;;16.14;42.60;102044.66;4890578;28;101422;-55
2021/03/31 01:13:47;;;;;;;5.57;3.07;;;15.40;80.70;;;16.12;42.36;102041.19;4891339;28;100232;-50
2021/03/31 01:16:24;;;;;;;8.07;3.80;;;15.30;80.60;;;16.08;42.49;102033.41;4866779;28;99674;-53
2021/03/31 01:19:19;;;;;;;3.17;2.73;;;15.30;80.20;;;16.00;42.66;102041.66;4916192;28;97214;-50
2021/03/31 01:22:13;;;;;;;4.60;2.93;;;15.00;82.50;;;15.94;42.52;102031.22;4906345;28;97582;-54
2021/03/31 01:25:11;;;;;;;2.90;2.57;;;15.00;83.00;;;15.88;43.03;102031.44;4897897;28;104776;-53
2021/03/31 01:28:08;;;;;;;5.83;4.30;;;14.90;83.20;;;15.84;42.99;102032.47;4895262;28;102803;-55
2021/03/31 01:31:25;;;;;;;4.80;3.70;;;14.90;82.00;;;15.79;43.13;102031.78;4914141;28;97350;-54
2021/03/31 01:34:19;;;;;;;7.53;4.20;;;14.90;82.40;;;15.72;43.19;102032.00;4886441;28;97668;-51
2021/03/31 01:36:49;;;;;;;4.43;3.40;;;14.80;83.10;;;15.69;43.46;102023.25;4920244;28;101698;-54
2021/03/31 01:39:17;;;;;;;5.90;4.10;;;14.70;83.40;;;15.68;43.44;102022.38;4895717;28;98129;-54
2021/03/31 01:41:43;;;;;;;5.50;3.57;;;14.80;83.40;;;15.66;43.41;102026.91;4907333;28;97118;-54
2021/03/31 01:44:13;;;;;;;6.43;3.90;;;14.80;84.30;;;15.65;43.45;102024.28;4912069;28;97405;-53
2021/03/31 01:46:41;;;;;;;7.73;4.47;;;14.70;83.50;;;15.64;43.34;102025.22;4902952;28;105641;-51
2021/03/31 01:49:08;;;;;;;3.60;2.60;;;14.70;82.70;;;15.64;43.73;102022.56;4902825;28;100873;-50
2021/03/31 01:51:35;;;;;;;2.53;2.20;;;14.80;84.00;;;15.66;43.66;102018.91;4890840;28;97425;-48
2021/03/31 01:54:03;;;;;;;5.00;3.63;;;14.80;83.10;;;15.67;43.50;102020.66;4899299;28;97823;-54
2021/03/31 01:56:30;;;;;;;5.93;3.70;;;14.80;82.20;;;15.64;43.46;102018.09;4896520;28;97755;-48
2021/03/31 01:58:57;;;;;;;7.03;4.20;;;14.70;82.80;;;15.64;43.25;102015.44;4915222;28;98763;-50
2021/03/31 02:01:25;;;;;;;6.03;3.77;;;14.70;82.50;;;15.63;43.37;102011.06;4915952;28;98175;-47
2021/03/31 02:03:55;;;;;;;6.13;4.23;;;14.70;83.40;;;15.62;43.68;102014.63;4899694;28;97553;-51
2021/03/31 02:06:21;;;;;;;4.50;3.07;;;14.70;82.80;;;15.61;43.67;102010.22;4909541;28;97477;-49
2021/03/31 02:08:48;;;;;;;5.97;4.07;;;14.60;82.80;;;15.54;43.42;102010.47;4901563;28;99265;-48
2021/03/31 02:11:15;;;;;;;4.93;4.07;;;14.50;83.00;;;15.53;43.82;102004.28;4896080;28;96936;-51
2021/03/31 02:13:41;;;;;;;6.97;3.63;;;14.50;83.00;;;15.51;44.00;102007.91;4918669;28;96809;-50
2021/03/31 02:16:09;;;;;;;5.60;4.30;;;14.50;83.60;;;15.51;43.67;102010.56;4912273;28;110661;-57
2021/03/31 02:18:36;;;;;;;6.43;3.83;;;14.50;82.80;;;15.49;43.81;102007.97;4898093;28;101487;-49
2021/03/31 02:21:04;;;;;;;4.10;3.63;;;14.60;83.90;;;15.50;43.68;101999.06;4916098;28;97718;-48
2021/03/31 02:23:34;;;;;;;3.40;3.10;;;14.60;83.20;;;15.54;43.84;102007.81;4914152;28;97082;-51
2021/03/31 02:26:00;;;;;;;4.40;2.63;;;14.70;82.70;;;15.56;43.83;102008.63;4915985;28;96671;-51
2021/03/31 02:28:26;;;;;;;2.97;2.30;;;14.70;82.80;;;15.58;43.95;101999.66;4916222;28;97221;-52
2021/03/31 02:30:52;;;;;;;3.03;2.73;;;14.80;85.10;;;15.62;43.61;101998.69;4903180;28;97400;-49
2021/03/31 02:33:19;;;;;;;6.47;4.43;;;14.80;82.50;;;15.64;43.73;102002.16;4894170;28;100820;-50
2021/03/31 02:35:45;;;;;;;3.87;3.07;;;14.80;82.60;;;15.67;43.51;101993.19;4901384;28;99133;-48
2021/03/31 02:38:15;;;;;;;2.50;2.30;;;14.90;83.00;;;15.73;43.50;101985.84;4894443;28;99714;-47
2021/03/31 02:40:46;;;;;;;5.13;2.80;;;15.10;84.30;;;15.81;43.18;101985.56;4905331;28;99728;-54
2021/03/31 02:43:14;;;;;;;5.87;3.20;;;15.30;80.70;;;15.86;43.15;101986.25;4892768;28;99197;-48
2021/03/31 02:45:45;;;;;;;4.77;3.57;;;15.30;79.90;;;15.89;42.93;101985.28;4916920;28;98845;-55
2021/03/31 02:48:14;;;;;;;4.07;3.10;;;15.20;80.50;;;15.90;42.98;101982.56;4895106;28;97457;-55
2021/03/31 02:50:42;;;;;;;3.50;2.60;;;15.20;80.90;;;15.91;42.96;101983.41;4918319;28;97586;-49
2021/03/31 02:53:10;;;;;;;6.73;3.77;;;15.20;80.90;;;15.90;42.82;101979.03;4901535;28;103632;-54
2021/03/31 02:55:38;;;;;;;6.70;3.73;;;15.10;82.20;;;15.84;42.74;101976.59;4908369;28;104096;-53
2021/03/31 02:58:06;;;;;;;3.07;2.30;;;15.00;80.40;;;15.85;43.19;101973.00;4917556;28;97890;-52
2021/03/31 03:00:32;;;;;;;3.70;3.07;;;15.00;84.60;;;15.86;43.21;101974.75;4894150;28;96831;-57
2021/03/31 03:03:01;;;;;;;2.47;2.27;;;15.10;82.60;;;15.89;42.85;101982.63;4917944;28;100560;-48
2021/03/31 03:05:27;;;;;;;3.67;2.70;;;15.20;81.50;;;15.91;42.83;101978.09;4895709;28;100538;-48
2021/03/31 03:07:53;;;;;;;3.13;2.40;;;15.20;80.90;;;15.90;42.86;101984.34;4883807;28;97783;-53
2021/03/31 03:10:19;;;;;;;6.57;4.40;;;15.10;80.30;;;15.84;42.88;101972.16;4897519;28;97364;-54
2021/03/31 03:12:57;;;;;;;8.37;4.37;;;15.00;80.80;;;15.80;42.58;101977.66;4917658;28;97585;-51
2021/03/31 03:15:27;;;;;;;6.20;4.20;;;14.90;79.90;;;15.76;43.13;101971.56;4903315;28;97721;-53
2021/03/31 03:17:53;;;;;;;5.37;4.03;;;14.80;81.60;;;15.73;43.24;101967.22;4897183;28;98111;-47
2021/03/31 03:20:20;;;;;;;3.00;2.70;;;14.80;81.50;;;15.71;43.31;101966.41;4913934;28;97954;-49
2021/03/31 03:22:50;;;;;;;3.17;2.87;;;14.80;81.80;;;15.68;43.33;101961.19;4900206;28;97169;-47
2021/03/31 03:25:21;;;;;;;5.33;3.80;;;14.80;82.20;;;15.68;43.65;101965.66;4912904;28;100115;-53
2021/03/31 03:27:48;;;;;;;3.30;2.83;;;14.80;81.50;;;15.68;43.67;101961.19;4899308;28;98848;-52
2021/03/31 03:30:17;;;;;;;9.43;4.50;;;14.80;81.50;;;15.68;43.50;101955.88;4894919;28;97720;-53
2021/03/31 03:32:46;;;;;;;2.90;2.30;;;14.90;81.70;;;15.70;43.48;101950.50;4900333;28;97021;-54
2021/03/31 03:35:25;;;;;;;6.07;4.23;;;14.90;82.30;;;15.70;43.21;101948.72;4910127;28;97314;-50
2021/03/31 03:37:52;;;;;;;6.87;4.63;;;14.90;80.40;;;15.67;43.24;101948.81;4894948;28;99539;-54
2021/03/31 03:40:22;;;;;;;4.37;3.97;;;14.80;80.60;;;15.66;43.43;101940.91;4894542;28;98542;-50
2021/03/31 03:42:48;;;;;;;2.93;2.63;;;14.70;81.20;;;15.59;43.78;101944.66;4916910;28;99495;-52
2021/03/31 03:45:16;;;;;;;2.60;2.10;;;14.60;82.80;;;15.59;43.92;101950.88;4909910;28;98907;-55
2021/03/31 03:47:43;;;;;;;2.50;2.30;;;14.70;85.00;;;15.62;43.67;101945.47;4893843;28;100265;-52
2021/03/31 03:50:12;;;;;;;2.20;2.00;;;14.80;81.80;;;15.66;43.77;101949.75;4877948;28;97287;-57
2021/03/31 03:52:38;;;;;;;3.87;2.13;;;14.80;83.80;;;15.73;43.70;101948.59;4916419;28;97457;-48
2021/03/31 03:55:05;;;;;;;2.83;2.37;;;15.10;84.20;;;15.80;43.29;101949.25;4914656;28;98596;-49
2021/03/31 03:57:31;;;;;;;6.73;4.17;;;15.20;83.80;;;15.87;43.20;101944.56;4883725;28;97407;-49
2021/03/31 03:59:58;;;;;;;4.77;3.47;;;15.20;79.80;;;15.88;43.01;101946.28;4899556;28;100331;-48
2021/03/31 04:02:24;;;;;;;5.03;3.17;;;15.20;80.10;;;15.81;43.31;101945.66;4907246;28;98336;-51
2021/03/31 04:04:50;;;;;;;3.13;2.87;;;14.90;81.30;;;15.77;43.08;101944.06;4915999;28;97622;-49
2021/03/31 04:07:17;;;;;;;4.80;2.70;;;14.90;81.70;;;15.73;43.60;101947.72;4909682;28;97304;-47
2021/03/31 04:09:46;;;;;;;4.20;2.87;;;14.80;82.10;;;15.71;43.46;101934.47;4916906;28;99243;-53
2021/03/31 04:12:15;;;;;;;3.90;2.80;;;14.80;81.80;;;15.67;43.63;101938.19;4896660;28;102256;-53
2021/03/31 04:14:42;;;;;;;3.47;2.20;;;14.80;83.20;;;15.66;43.51;101939.13;4903068;28;98415;-48
2021/03/31 04:17:19;;;;;;;5.07;4.30;;;14.80;84.30;;;15.67;43.16;101943.50;4880921;28;99606;-54
2021/03/31 04:19:49;;;;;;;5.20;3.90;;;14.80;80.20;;;15.64;43.37;101942.75;4897846;28;97449;-47
2021/03/31 04:22:15;;;;;;;6.07;3.90;;;14.70;80.60;;;15.53;43.57;101935.13;4898357;28;97502;-50
2021/03/31 04:24:41;;;;;;;4.93;3.70;;;14.50;81.60;;;15.48;43.82;101932.66;4901300;28;97488;-54
2021/03/31 04:27:11;;;;;;;6.00;4.40;;;14.40;81.70;;;15.40;43.32;101936.50;4910602;28;97783;-50
2021/03/31 04:29:42;;;;;;;8.97;5.27;;;14.30;81.60;;;15.34;44.11;101939.38;4890875;28;97574;-51
2021/03/31 04:32:17;;;;;;;8.70;4.93;;;14.20;82.90;;;15.29;43.85;101938.66;4896389;28;99206;-56
2021/03/31 04:34:44;;;;;;;7.10;5.20;;;14.10;82.50;;;15.18;43.84;101934.56;4888286;28;100722;-50
2021/03/31 04:37:13;;;;;;;6.60;4.30;;;14.00;83.00;;;15.12;43.74;101945.41;4887833;28;97381;-53
2021/03/31 04:39:39;;;;;;;8.70;4.27;;;14.00;82.70;;;15.04;44.04;101942.13;4891960;28;97517;-52
2021/03/31 04:42:07;;;;;;;10.07;4.43;;;13.90;82.60;;;15.02;44.73;101941.34;4904067;28;97154;-52
2021/03/31 04:44:33;;;;;;;8.93;4.80;;;13.80;84.70;;;14.96;43.96;101938.03;4912459;28;99665;-55
2021/03/31 04:47:01;;;;;;;8.87;3.93;;;13.80;84.00;;;14.92;44.66;101931.94;4916604;28;97640;-49
2021/03/31 04:49:27;;;;;;;4.33;3.03;;;13.80;83.90;;;14.86;44.93;101937.44;4911650;28;97573;-48
2021/03/31 04:51:53;;;;;;;5.77;4.27;;;13.70;85.40;;;14.86;44.60;101937.44;4896197;28;97061;-48
2021/03/31 04:54:19;;;;;;;6.83;4.13;;;13.70;83.90;;;14.85;45.04;101935.72;4906935;28;97079;-51
2021/03/31 04:56:45;;;;;;;4.00;3.30;;;13.70;85.00;;;14.85;45.14;101935.72;4916238;28;96888;-48
2021/03/31 04:59:11;;;;;;;5.03;3.13;;;13.70;87.00;;;14.88;45.21;101924.97;4916285;28;97223;-50
2021/03/31 05:01:37;;;;;;;8.97;4.53;;;13.90;84.40;;;14.95;44.88;101936.28;4901806;28;97387;-47
2021/03/31 05:04:03;;;;;;;8.67;4.43;;;14.00;84.00;;;14.99;44.75;101932.59;4917587;28;97658;-50
2021/03/31 05:06:29;;;;;;;11.00;4.33;;;14.10;85.60;;;15.02;44.76;101929.84;4894904;28;97261;-51
2021/03/31 05:08:54;;;;;;;14.00;5.10;;;14.10;84.10;;;15.02;44.79;101933.34;4901270;28;97355;-54
2021/03/31 05:11:20;;;;;;;8.43;4.40;;;14.00;83.30;;;15.03;44.72;101929.78;4919854;28;97609;-55
2021/03/31 05:13:46;;;;;;;4.57;3.17;;;14.00;83.90;;;15.03;44.82;101916.50;4902057;28;97443;-52
2021/03/31 05:16:12;;;;;;;5.00;2.40;;;14.00;85.10;;;15.05;45.02;101922.66;4902736;28;99240;-49
2021/03/31 05:18:38;;;;;;;7.80;2.97;;;14.00;86.10;;;15.13;44.94;101914.41;4897367;28;97309;-54
2021/03/31 05:21:04;;;;;;;7.77;2.63;;;14.20;86.30;;;15.21;44.71;101927.44;4920307;28;97712;-48
2021/03/31 05:23:30;;;;;;;3.73;2.77;;;14.30;85.80;;;15.29;44.47;101917.38;4915074;28;98312;-49
2021/03/31 05:25:56;;;;;;;12.20;5.53;;;14.40;83.80;;;15.26;44.07;101920.16;4908393;28;100343;-48
2021/03/31 05:28:22;;;;;;;16.90;5.47;;;14.30;82.50;;;15.26;44.39;101920.16;4900041;28;98019;-50
2021/03/31 05:30:47;;;;;;;7.77;3.37;;;14.20;83.10;;;15.27;44.43;101928.06;4917858;28;97463;-53
2021/03/31 05:33:13;;;;;;;5.77;2.70;;;14.20;84.60;;;15.29;44.27;101926.22;4895238;28;113293;-48
2021/03/31 05:35:39;;;;;;;8.07;3.23;;;14.30;84.70;;;15.32;44.37;101919.94;4900421;28;96901;-47
2021/03/31 05:38:05;;;;;;;3.27;2.10;;;14.40;84.00;;;15.37;44.14;101920.66;4897694;28;96967;-48
2021/03/31 05:40:32;;;;;;;3.03;2.47;;;14.50;85.90;;;15.43;43.96;101917.75;4895179;28;97053;-48
2021/03/31 05:42:59;;;;;;;2.90;2.63;;;14.60;86.90;;;15.52;44.01;101909.47;4902453;28;99621;-47
2021/03/31 05:45:28;;;;;;;3.43;2.53;;;14.80;84.40;;;15.62;43.68;101910.00;4898418;28;99493;-53
2021/03/31 05:47:54;;;;;;;7.87;4.30;;;14.90;83.40;;;15.66;43.59;101915.19;4918278;28;97836;-51
2021/03/31 05:50:20;;;;;;;6.20;4.10;;;14.90;81.40;;;15.67;43.72;101916.03;4916237;28;97248;-49
2021/03/31 05:52:47;;;;;;;3.63;2.23;;;14.90;81.50;;;15.70;43.63;101911.47;4923284;28;97799;-51
2021/03/31 05:55:17;;;;;;;3.73;2.30;;;15.00;85.00;;;15.81;43.27;101902.22;4901776;28;97085;-50
2021/03/31 05:57:44;;;;;;;4.63;2.63;;;15.20;84.60;;;15.89;43.17;101916.97;4896397;28;98388;-55
2021/03/31 06:00:18;;;;;;;3.73;2.80;;;15.40;81.10;;;15.93;42.97;101915.06;4899916;28;97033;-49
2021/03/31 06:02:46;;;;;;;4.80;2.57;;;15.30;80.90;;;15.95;42.71;101905.22;4895662;28;97852;-49
2021/03/31 06:05:14;;;;;;;3.33;2.27;;;15.40;83.30;;;16.04;42.61;101916.38;4900276;28;98350;-47
2021/03/31 06:07:41;;;;;;;2.20;2.00;;;15.50;82.20;;;16.09;42.60;101913.56;4897701;28;97476;-53
2021/03/31 06:10:18;;;;;;;6.27;4.33;;;15.60;80.60;;;16.12;42.61;101921.41;4918141;28;98171;-47
2021/03/31 06:13:07;;;;;;;5.00;3.37;;;15.50;79.40;;;16.09;42.53;101918.88;4911275;28;104709;-47
2021/03/31 06:15:42;;;;;;;3.57;3.00;;;15.40;80.80;;;16.05;42.81;101927.88;4897389;28;97434;-55
2021/03/31 06:18:08;;;;;;;5.47;4.03;;;15.30;82.80;;;16.03;42.75;101924.41;4915563;28;97616;-48
2021/03/31 06:20:43;;;;;;;5.27;2.33;;;15.30;82.00;;;16.03;42.75;101919.09;4919407;28;97020;-54
2021/03/31 06:26:04;;;;;;;6.47;4.40;;;15.40;82.60;;;16.14;42.66;101922.22;4916445;28;97136;-55
2021/03/31 06:28:35;;;;;;;5.97;3.80;;;15.50;81.70;;;16.14;42.53;101927.53;4881210;28;97530;-48
2021/03/31 06:31:12;;;;;;;8.00;5.23;;;15.50;82.30;;;16.14;42.47;101930.19;4917974;28;97420;-58
2021/03/31 06:33:40;;;;;;;5.37;3.50;;;15.40;80.30;;;16.10;42.37;101925.94;4894690;28;103795;-49
2021/03/31 06:36:08;;;;;;;5.07;3.07;;;15.30;81.00;;;16.08;42.84;101922.47;4881364;28;98440;-50
2021/03/31 06:38:39;;;;;;;6.27;4.27;;;15.30;80.70;;;16.09;42.59;101924.19;4881375;28;97334;-52
2021/03/31 06:41:30;;;;;;;3.33;2.43;;;15.30;81.70;;;16.10;42.89;101920.63;4916624;28;97254;-50
2021/03/31 06:44:21;;;;;;;3.30;2.73;;;15.40;83.70;;;16.14;42.77;101911.56;4914805;28;103332;-49
2021/03/31 06:49:33;;;;;;;6.20;4.73;;;15.60;78.70;;;16.12;42.40;101920.53;4915320;28;96838;-51
2021/03/31 06:52:04;;;;;;;8.33;4.83;;;15.40;79.90;;;16.03;42.11;101927.06;4895381;28;99264;-52
2021/03/31 06:54:50;;;;;;;7.20;3.93;;;15.20;80.50;;;16.02;42.45;101917.38;4900441;28;97164;-48
2021/03/31 06:57:35;;;;;;;2.57;2.30;;;15.20;82.50;;;16.03;42.74;101919.97;4906139;28;97434;-51
2021/03/31 07:00:08;;;;;;;3.03;2.23;;;15.30;82.70;;;16.19;42.62;101914.03;4915632;28;96733;-54
2021/03/31 07:02:36;;;;;;;8.53;5.47;;;15.70;81.30;;;16.19;39.81;101917.56;4890573;28;97491;-47
2021/03/31 07:05:04;;;;;;;7.67;4.40;;;15.70;77.10;;;16.20;42.13;101919.34;4899580;28;97961;-52
2021/03/31 07:07:41;;;;;;;2.63;1.97;;;15.60;80.60;;;16.35;42.04;101916.06;4908478;28;97176;-51
2021/03/31 07:10:13;;;;;;;3.53;2.93;;;15.90;82.00;;;16.54;41.75;101912.66;4898894;28;98796;-51
2021/03/31 07:12:49;;;;;;;2.73;2.37;;;16.30;80.50;;;16.72;41.53;101903.94;4887767;28;97228;-54
2021/03/31 07:15:19;;;;;;;3.93;2.97;;;16.60;80.10;;;16.90;40.77;101904.94;4905877;28;98707;-47
2021/03/31 07:17:53;;;;;;;3.27;2.37;;;16.80;77.50;;;17.04;40.57;101894.56;4890044;28;99571;-53
2021/03/31 07:20:19;;;;;;;3.17;2.20;;;17.00;77.90;;;17.17;40.45;101905.56;4889152;28;97806;-53
2021/03/31 07:22:46;;;;;;;5.30;3.63;;;17.20;77.30;;;17.28;37.84;101897.97;4915252;28;97545;-49
2021/03/31 07:25:13;;;;;;;2.80;2.40;;;17.30;73.30;;;17.37;39.24;101897.59;4905554;28;98678;-58
2021/03/31 07:27:40;;;;;;;2.93;2.40;;;17.40;74.70;;;17.43;39.79;101897.28;4898216;28;99618;-51
2021/03/31 07:33:15;;;;;;;2.37;2.17;;;17.50;75.50;;;17.63;39.52;101892.84;4912522;28;97459;-50
2021/03/31 07:35:42;;;;;;;2.77;2.30;;;17.70;75.90;;;17.62;39.37;101885.78;4907792;28;103803;-55
2021/03/31 07:38:11;;;;;;;4.33;2.43;;;17.70;75.50;;;17.68;39.30;101889.09;4883320;28;97371;-53
2021/03/31 07:40:38;;;;;;;3.63;2.40;;;17.80;75.20;;;17.74;39.06;101882.59;4891063;28;97161;-51
2021/03/31 07:43:10;;;;;;;3.80;2.40;;;17.80;74.70;;;17.80;39.02;101890.34;4918552;28;97012;-51
2021/03/31 07:46:06;;;;;;;2.90;2.17;;;17.90;74.50;;;17.89;38.60;101883.69;4906973;28;100419;-51
2021/03/31 07:48:33;;;;;;;2.73;2.17;;;18.00;74.30;;;17.85;38.92;101877.63;4900917;28;97408;-51
2021/03/31 07:51:27;;;;;;;4.97;3.57;;;17.90;74.10;;;17.86;37.79;101879.34;4912832;28;103545;-54
2021/03/31 07:53:58;;;;;;;2.67;2.30;;;17.90;69.10;;;17.85;38.54;101882.97;4914720;28;97284;-50
2021/03/31 07:56:37;;;;;;;4.70;3.80;;;17.90;74.20;;;17.83;35.59;101880.38;4893955;28;97514;-51
2021/03/31 07:59:09;;;;;;;4.70;3.17;;;17.90;69.20;;;17.75;38.06;101870.97;4913040;28;98164;-57
2021/03/31 08:01:44;;;;;;;6.20;3.97;;;17.70;70.90;;;17.70;37.80;101878.34;4914517;28;97154;-55
2021/03/31 08:04:12;;;;;;;5.67;4.70;;;17.60;69.80;;;17.64;38.97;101879.44;4894945;28;97782;-54
2021/03/31 08:06:40;;;;;;;13.50;6.90;;;17.50;72.60;;;17.57;37.46;101871.81;4881287;28;101826;-52
2021/03/31 08:09:30;;;;;;;11.37;6.60;;;17.40;70.50;;;17.54;37.98;101878.16;4908909;28;99557;-52
2021/03/31 08:12:05;;;;;;;9.67;6.90;;;17.30;69.70;;;17.47;35.88;101877.53;4894130;28;97862;-52
2021/03/31 08:14:31;;;;;;;13.53;7.23;;;17.30;69.20;;;17.44;37.05;101872.34;4890716;28;102021;-52
2021/03/31 08:17:00;;;;;;;10.90;7.13;;;17.20;69.10;;;17.45;38.00;101874.09;4911675;28;99593;-47
2021/03/31 08:19:52;;;;;;;11.53;7.07;;;17.30;71.80;;;17.45;37.86;101874.09;4892799;28;98235;-54
2021/03/31 08:22:37;;;;;;;10.10;6.53;;;17.30;70.00;;;17.46;36.77;101875.81;4909146;28;97320;-54
2021/03/31 08:25:27;;;;;;;11.07;6.97;;;17.30;70.90;;;17.47;37.70;101884.69;4899234;28;97359;-57
2021/03/31 08:28:05;;;;;;;10.60;7.03;;;17.30;69.60;;;17.51;38.91;101887.16;4880661;28;101897;-52
2021/03/31 08:30:36;;;;;;;7.53;5.07;;;17.40;70.80;;;17.55;39.09;101880.75;4912799;28;98786;-54
2021/03/31 08:33:04;;;;;;;10.03;5.17;;;17.50;73.50;;;17.62;39.15;101875.97;4900780;28;98284;-54
2021/03/31 08:35:30;;;;;;;2.70;2.40;;;17.60;73.40;;;17.69;38.93;101872.16;4898055;28;98053;-51
2021/03/31 08:37:58;;;;;;;8.57;5.27;;;17.70;74.50;;;17.78;38.97;101870.81;4903951;28;101305;-54
2021/03/31 08:40:30;;;;;;;6.40;3.97;;;17.80;73.60;;;17.85;38.63;101869.63;4896846;28;97368;-54
2021/03/31 08:42:59;;;;;;;13.73;7.40;;;17.90;73.40;;;17.89;36.60;101871.19;4920770;28;97011;-54
2021/03/31 08:45:36;;;;;;;11.07;7.60;;;18.00;69.00;;;17.93;35.88;101872.78;4902576;28;97065;-53
2021/03/31 08:48:02;;;;;;;10.77;8.27;;;18.00;67.60;;;17.97;38.08;101877.06;4903111;28;100760;-55
2021/03/31 08:50:36;;;;;;;13.27;8.23;;;18.00;70.80;;;18.00;37.85;101874.22;4921846;28;100025;-48
2021/03/31 08:53:09;;;;;;;12.63;7.40;;;18.00;71.10;;;18.04;37.55;101873.16;4917310;28;96882;-55
2021/03/31 08:55:38;;;;;;;10.97;7.40;;;18.10;70.60;;;18.09;38.07;101868.47;4901497;28;97192;-55
2021/03/31 08:58:07;;;;;;;7.97;5.93;;;18.10;71.60;;;18.12;37.47;101871.00;4915062;28;98141;-50
2021/03/31 09:00:47;;;;;;;3.43;2.67;;;18.10;69.70;;;18.18;38.11;101864.47;4902036;28;97345;-54
2021/03/31 09:03:13;;;;;;;4.83;2.87;;;18.20;72.60;;;18.21;38.03;101866.13;4895907;28;96951;-50
2021/03/31 09:05:39;;;;;;;11.40;7.50;;;18.30;72.40;;;18.22;35.31;101865.19;4909508;28;97011;-50
2021/03/31 09:08:08;;;;;;;5.47;3.37;;;18.30;68.60;;;18.25;38.12;101859.72;4887367;28;97364;-53
2021/03/31 09:10:33;;;;;;;11.03;6.57;;;18.40;72.60;;;18.27;37.37;101856.03;4901290;28;98438;-49
2021/03/31 09:12:59;;;;;;;13.70;8.50;;;18.40;71.50;;;18.31;34.15;101854.06;4903484;28;97816;-52
2021/03/31 09:15:25;;;;;;;5.97;3.30;;;18.40;66.20;;;18.33;38.02;101846.84;4914089;28;99386;-49
2021/03/31 09:17:55;;;;;;;10.83;7.70;;;18.40;72.00;;;18.36;35.04;101841.34;4907777;28;99462;-51
2021/03/31 09:20:21;;;;;;;7.37;5.60;;;18.50;67.90;;;18.36;37.69;101842.19;4908886;28;96963;-52
2021/03/31 09:22:47;;;;;;;3.70;2.60;;;18.50;72.10;;;18.37;38.03;101843.06;4920707;28;96970;-48
2021/03/31 09:25:14;;;;;;;13.33;7.67;;;18.50;72.10;;;18.40;34.21;101842.94;4897192;28;98316;-52
2021/03/31 09:27:40;;;;;;;11.70;7.70;;;18.50;66.70;;;18.47;36.06;101838.13;4886575;28;97745;-48
2021/03/31 09:30:14;;;;;;;10.63;7.33;;;18.60;68.50;;;18.49;33.58;101836.25;4905629;28;99473;-51
2021/03/31 09:32:54;;;;;;;9.10;7.50;;;18.60;66.30;;;18.50;36.95;101838.84;4896983;28;96909;-51
2021/03/31 09:35:20;;;;;;;7.63;5.30;;;18.60;69.90;;;18.50;37.23;101827.28;4915812;28;98060;-55
2021/03/31 09:37:47;;;;;;;5.73;4.60;;;18.60;70.80;;;18.48;37.73;101835.38;4898933;28;97539;-52
2021/03/31 09:40:22;;;;;;;11.43;6.33;;;18.60;71.40;;;18.53;37.20;101833.38;4899606;28;99434;-51
2021/03/31 09:42:58;;;;;;;9.30;4.97;;;18.70;70.60;;;18.53;37.32;101832.50;4898050;28;97182;-51
2021/03/31 09:45:29;;;;;;;12.00;6.90;;;18.70;70.80;;;18.53;35.67;101828.03;4897637;28;99183;-52
2021/03/31 09:47:57;;;;;;;8.67;6.60;;;18.70;66.80;;;18.56;34.46;101819.84;4897202;28;99571;-52
2021/03/31 09:50:28;;;;;;;9.77;6.00;;;18.70;65.40;;;18.60;36.59;101829.44;4882579;28;97696;-52
2021/03/31 09:52:56;;;;;;;6.43;4.43;;;18.70;69.30;;;18.60;36.71;101820.56;4902265;28;97198;-48
2021/03/31 09:55:24;;;;;;;7.83;5.37;;;18.80;70.00;;;18.57;37.42;101818.91;4899170;28;97018;-52
2021/03/31 09:57:51;;;;;;;7.03;4.53;;;18.70;70.90;;;18.59;36.65;101810.81;4917932;28;97121;-51
2021/03/31 10:00:20;;;;;;;7.93;5.70;;;18.80;69.90;;;18.56;37.21;101811.84;4909598;28;98546;-51
2021/03/31 10:02:48;;;;;;;9.40;6.10;;;18.70;70.90;;;18.56;37.47;101806.50;4898826;28;96990;-54
2021/03/31 10:05:21;;;;;;;10.30;6.07;;;18.70;71.10;;;18.59;36.31;101800.97;4914493;28;97438;-51
2021/03/31 10:08:00;;;;;;;10.80;6.20;;;18.70;69.40;;;18.60;37.12;101802.72;4917738;28;97208;-52
2021/03/31 10:10:48;;;;;;;12.47;6.97;;;18.80;70.40;;;18.69;32.47;101796.94;4914096;28;97251;-52
2021/03/31 10:13:16;;;;;;;11.37;6.77;;;18.80;62.20;;;18.67;35.14;101793.47;4909449;28;97217;-54
2021/03/31 10:15:57;;;;;;;10.73;6.63;;;18.80;67.50;;;18.73;35.88;101794.97;4913115;28;97361;-51
2021/03/31 10:18:24;;;;;;;5.17;2.97;;;18.90;68.80;;;18.68;37.19;101789.88;4911682;28;100104;-53
2021/03/31 10:20:50;;;;;;;3.53;2.77;;;18.90;70.40;;;18.65;37.11;101798.00;4881894;28;99003;-51
2021/03/31 10:23:31;;;;;;;12.73;6.37;;;18.90;70.60;;;18.81;31.77;101789.22;4883054;28;97344;-51
2021/03/31 10:26:22;;;;;;;9.47;5.50;;;18.90;63.00;;;18.81;36.73;101791.91;4893870;28;97130;-52
2021/03/31 10:28:49;;;;;;;7.07;5.20;;;19.00;69.70;;;18.77;37.01;101780.47;4901408;28;100542;-49
2021/03/31 10:31:18;;;;;;;2.73;2.13;;;19.00;70.10;;;18.73;37.09;101777.13;4897830;28;99066;-48
2021/03/31 10:33:46;;;;;;;11.93;5.67;;;19.00;70.30;;;18.85;36.17;101780.09;4917620;28;96773;-54